sensor_id;sensor_type;location;lat;lon;timestamp;pressure;altitude;pressure_sealevel;temperature;humidity
77450;BME280;66536;53.150;18.172;2023-05-07T00:01:57;102079.28;;;5.58;82.15
77450;BME280;66536;53.150;18.172;2023-05-07T00:04:23;102078.05;;;5.53;82.18
77450;BME280;66536;53.150;18.172;2023-05-07T00:06:49;102079.27;;;5.49;82.30
77450;BME280;66536;53.150;18.172;2023-05-07T00:09:15;102077.17;;;5.44;82.37
77450;BME280;66536;53.150;18.172;2023-05-07T00:11:43;102079.86;;;5.41;82.39
77450;BME280;66536;53.150;18.172;2023-05-07T00:14:09;102079.95;;;5.38;82.68
77450;BME280;66536;53.150;18.172;2023-05-07T00:16:35;102079.56;;;5.37;82.75
77450;BME280;66536;53.150;18.172;2023-05-07T00:19:01;102076.30;;;5.35;82.75
77450;BME280;66536;53.150;18.172;2023-05-07T00:21:27;102077.57;;;5.32;82.77
77450;BME280;66536;53.150;18.172;2023-05-07T00:23:53;102080.54;;;5.30;82.86
77450;BME280;66536;53.150;18.172;2023-05-07T00:26:22;102078.02;;;5.27;83.16
77450;BME280;66536;53.150;18.172;2023-05-07T00:28:49;102081.05;;;5.26;83.08
77450;BME280;66536;53.150;18.172;2023-05-07T00:31:14;102078.29;;;5.23;83.32
77450;BME280;66536;53.150;18.172;2023-05-07T00:33:40;102079.57;;;5.20;83.38
77450;BME280;66536;53.150;18.172;2023-05-07T00:36:07;102084.11;;;5.17;83.59
77450;BME280;66536;53.150;18.172;2023-05-07T00:38:33;102085.42;;;5.14;83.30
77450;BME280;66536;53.150;18.172;2023-05-07T00:40:59;102089.54;;;5.09;83.15
77450;BME280;66536;53.150;18.172;2023-05-07T00:43:25;102091.68;;;5.03;83.14
77450;BME280;66536;53.150;18.172;2023-05-07T00:45:51;102094.56;;;4.95;83.17
77450;BME280;66536;53.150;18.172;2023-05-07T00:48:18;102093.94;;;4.89;83.26
77450;BME280;66536;53.150;18.172;2023-05-07T00:50:44;102095.21;;;4.84;83.29
77450;BME280;66536;53.150;18.172;2023-05-07T00:53:11;102099.13;;;4.79;83.21
77450;BME280;66536;53.150;18.172;2023-05-07T00:55:38;102103.52;;;4.72;83.27
77450;BME280;66536;53.150;18.172;2023-05-07T00:58:05;102104.88;;;4.66;83.38
77450;BME280;66536;53.150;18.172;2023-05-07T01:00:32;102110.98;;;4.59;83.48
77450;BME280;66536;53.150;18.172;2023-05-07T01:02:58;102108.51;;;4.52;83.59
77450;BME280;66536;53.150;18.172;2023-05-07T01:05:26;102103.23;;;4.48;83.69
77450;BME280;66536;53.150;18.172;2023-05-07T01:07:53;102100.66;;;4.44;83.82
77450;BME280;66536;53.150;18.172;2023-05-07T01:10:21;102105.30;;;4.42;83.73
77450;BME280;66536;53.150;18.172;2023-05-07T01:12:48;102109.96;;;4.39;83.85
77450;BME280;66536;53.150;18.172;2023-05-07T01:15:15;102108.96;;;4.39;83.95
77450;BME280;66536;53.150;18.172;2023-05-07T01:17:42;102108.04;;;4.40;84.08
77450;BME280;66536;53.150;18.172;2023-05-07T01:20:14;102107.17;;;4.40;83.97
77450;BME280;66536;53.150;18.172;2023-05-07T01:22:42;102108.65;;;4.38;83.98
77450;BME280;66536;53.150;18.172;2023-05-07T01:25:09;102110.61;;;4.35;83.98
77450;BME280;66536;53.150;18.172;2023-05-07T01:27:38;102111.56;;;4.30;83.78
77450;BME280;66536;53.150;18.172;2023-05-07T01:30:04;102112.23;;;4.25;83.84
77450;BME280;66536;53.150;18.172;2023-05-07T01:32:37;102116.13;;;4.21;83.92
77450;BME280;66536;53.150;18.172;2023-05-07T01:35:07;102117.20;;;4.17;83.92
77450;BME280;66536;53.150;18.172;2023-05-07T01:37:35;102120.58;;;4.15;84.10
77450;BME280;66536;53.150;18.172;2023-05-07T01:40:02;102119.63;;;4.14;84.16
77450;BME280;66536;53.150;18.172;2023-05-07T01:42:29;102128.45;;;4.13;83.98
77450;BME280;66536;53.150;18.172;2023-05-07T01:44:56;102128.75;;;4.07;83.89
77450;BME280;66536;53.150;18.172;2023-05-07T01:47:22;102127.64;;;4.02;84.03
77450;BME280;66536;53.150;18.172;2023-05-07T01:49:49;102128.81;;;3.96;84.10
77450;BME280;66536;53.150;18.172;2023-05-07T01:52:17;102128.56;;;3.91;84.29
77450;BME280;66536;53.150;18.172;2023-05-07T01:54:43;102131.63;;;3.88;84.68
77450;BME280;66536;53.150;18.172;2023-05-07T01:57:09;102138.58;;;3.84;84.83
77450;BME280;66536;53.150;18.172;2023-05-07T01:59:35;102136.14;;;3.82;84.88
77450;BME280;66536;53.150;18.172;2023-05-07T02:02:01;102136.31;;;3.82;85.11
77450;BME280;66536;53.150;18.172;2023-05-07T02:04:27;102139.00;;;3.81;85.06
77450;BME280;66536;53.150;18.172;2023-05-07T02:06:54;102139.39;;;3.78;84.97
77450;BME280;66536;53.150;18.172;2023-05-07T02:09:21;102140.92;;;3.76;85.19
77450;BME280;66536;53.150;18.172;2023-05-07T02:11:49;102141.23;;;3.75;85.50
77450;BME280;66536;53.150;18.172;2023-05-07T02:14:16;102134.45;;;3.72;85.67
77450;BME280;66536;53.150;18.172;2023-05-07T02:16:42;102131.74;;;3.70;85.71
77450;BME280;66536;53.150;18.172;2023-05-07T02:19:10;102136.21;;;3.67;85.60
77450;BME280;66536;53.150;18.172;2023-05-07T02:21:36;102137.40;;;3.63;85.51
77450;BME280;66536;53.150;18.172;2023-05-07T02:24:02;102142.66;;;3.60;85.45
77450;BME280;66536;53.150;18.172;2023-05-07T02:26:28;102146.20;;;3.58;85.53
77450;BME280;66536;53.150;18.172;2023-05-07T02:28:54;102147.61;;;3.55;85.59
77450;BME280;66536;53.150;18.172;2023-05-07T02:31:20;102148.52;;;3.53;85.58
77450;BME280;66536;53.150;18.172;2023-05-07T02:33:46;102151.81;;;3.50;85.41
77450;BME280;66536;53.150;18.172;2023-05-07T02:36:12;102150.10;;;3.46;85.38
77450;BME280;66536;53.150;18.172;2023-05-07T02:38:43;102145.73;;;3.43;85.32
77450;BME280;66536;53.150;18.172;2023-05-07T02:41:09;102146.16;;;3.40;85.27
77450;BME280;66536;53.150;18.172;2023-05-07T02:43:36;102146.30;;;3.38;85.45
77450;BME280;66536;53.150;18.172;2023-05-07T02:46:03;102152.54;;;3.37;85.40
77450;BME280;66536;53.150;18.172;2023-05-07T02:48:30;102156.37;;;3.36;85.45
77450;BME280;66536;53.150;18.172;2023-05-07T02:50:57;102159.84;;;3.35;85.41
77450;BME280;66536;53.150;18.172;2023-05-07T02:53:23;102160.98;;;3.34;85.65
77450;BME280;66536;53.150;18.172;2023-05-07T02:55:53;102157.08;;;3.34;85.64
77450;BME280;66536;53.150;18.172;2023-05-07T02:58:25;102155.85;;;3.32;85.66
77450;BME280;66536;53.150;18.172;2023-05-07T03:00:51;102154.98;;;3.28;85.65
77450;BME280;66536;53.150;18.172;2023-05-07T03:03:26;102154.28;;;3.26;85.60
77450;BME280;66536;53.150;18.172;2023-05-07T03:05:52;102162.93;;;3.25;85.65
77450;BME280;66536;53.150;18.172;2023-05-07T03:08:17;102164.27;;;3.23;85.44
77450;BME280;66536;53.150;18.172;2023-05-07T03:10:43;102165.82;;;3.23;85.45
77450;BME280;66536;53.150;18.172;2023-05-07T03:13:29;102167.42;;;3.22;85.30
77450;BME280;66536;53.150;18.172;2023-05-07T03:15:56;102174.13;;;3.21;85.49
77450;BME280;66536;53.150;18.172;2023-05-07T03:18:22;102177.67;;;3.22;85.38
77450;BME280;66536;53.150;18.172;2023-05-07T03:20:48;102181.23;;;3.22;85.32
77450;BME280;66536;53.150;18.172;2023-05-07T03:23:14;102182.24;;;3.22;85.19
77450;BME280;66536;53.150;18.172;2023-05-07T03:25:40;102185.89;;;3.23;85.16
77450;BME280;66536;53.150;18.172;2023-05-07T03:28:06;102189.43;;;3.24;85.22
77450;BME280;66536;53.150;18.172;2023-05-07T03:30:40;102188.59;;;3.26;85.27
77450;BME280;66536;53.150;18.172;2023-05-07T03:33:05;102186.19;;;3.28;85.20
77450;BME280;66536;53.150;18.172;2023-05-07T03:35:32;102185.44;;;3.31;85.02
77450;BME280;66536;53.150;18.172;2023-05-07T03:37:58;102192.35;;;3.34;84.95
77450;BME280;66536;53.150;18.172;2023-05-07T03:40:26;102192.40;;;3.38;85.04
77450;BME280;66536;53.150;18.172;2023-05-07T03:42:53;102197.57;;;3.41;84.94
77450;BME280;66536;53.150;18.172;2023-05-07T03:45:20;102198.81;;;3.45;85.01
77450;BME280;66536;53.150;18.172;2023-05-07T03:47:51;102198.34;;;3.49;84.96
77450;BME280;66536;53.150;18.172;2023-05-07T03:50:19;102203.27;;;3.53;85.11
77450;BME280;66536;53.150;18.172;2023-05-07T03:52:45;102208.67;;;3.58;85.13
77450;BME280;66536;53.150;18.172;2023-05-07T03:55:12;102206.58;;;3.63;85.16
77450;BME280;66536;53.150;18.172;2023-05-07T03:57:38;102205.39;;;3.69;85.08
77450;BME280;66536;53.150;18.172;2023-05-07T04:00:05;102209.28;;;3.75;85.28
77450;BME280;66536;53.150;18.172;2023-05-07T04:02:46;102214.69;;;3.82;84.98
77450;BME280;66536;53.150;18.172;2023-05-07T04:05:14;102214.85;;;3.89;84.93
77450;BME280;66536;53.150;18.172;2023-05-07T04:07:40;102214.14;;;3.97;84.79
77450;BME280;66536;53.150;18.172;2023-05-07T04:10:08;102218.67;;;4.04;84.60
77450;BME280;66536;53.150;18.172;2023-05-07T04:12:34;102219.79;;;4.09;84.43
77450;BME280;66536;53.150;18.172;2023-05-07T04:15:02;102223.09;;;4.15;84.26
77450;BME280;66536;53.150;18.172;2023-05-07T04:17:28;102232.33;;;4.21;84.17
77450;BME280;66536;53.150;18.172;2023-05-07T04:19:54;102238.37;;;4.26;84.09
77450;BME280;66536;53.150;18.172;2023-05-07T04:22:20;102243.36;;;4.32;84.01
77450;BME280;66536;53.150;18.172;2023-05-07T04:24:46;102244.30;;;4.37;83.78
77450;BME280;66536;53.150;18.172;2023-05-07T04:27:13;102243.89;;;4.41;83.80
77450;BME280;66536;53.150;18.172;2023-05-07T04:29:39;102246.42;;;4.46;83.55
77450;BME280;66536;53.150;18.172;2023-05-07T04:32:09;102248.93;;;4.50;83.60
77450;BME280;66536;53.150;18.172;2023-05-07T04:34:37;102248.92;;;4.57;83.37
77450;BME280;66536;53.150;18.172;2023-05-07T04:37:03;102248.27;;;4.62;83.27
77450;BME280;66536;53.150;18.172;2023-05-07T04:39:30;102248.70;;;4.67;83.23
77450;BME280;66536;53.150;18.172;2023-05-07T04:41:57;102248.02;;;4.73;83.24
77450;BME280;66536;53.150;18.172;2023-05-07T04:44:23;102250.64;;;4.78;83.03
77450;BME280;66536;53.150;18.172;2023-05-07T04:46:49;102251.92;;;4.83;82.86
77450;BME280;66536;53.150;18.172;2023-05-07T04:49:15;102255.08;;;4.88;82.82
77450;BME280;66536;53.150;18.172;2023-05-07T04:51:41;102262.66;;;4.94;82.70
77450;BME280;66536;53.150;18.172;2023-05-07T04:54:09;102262.01;;;4.97;82.24
77450;BME280;66536;53.150;18.172;2023-05-07T04:56:35;102263.74;;;5.01;82.32
77450;BME280;66536;53.150;18.172;2023-05-07T04:59:01;102261.23;;;5.06;82.24
77450;BME280;66536;53.150;18.172;2023-05-07T05:01:28;102263.86;;;5.14;82.13
77450;BME280;66536;53.150;18.172;2023-05-07T05:03:54;102266.63;;;5.21;81.84
77450;BME280;66536;53.150;18.172;2023-05-07T05:06:21;102264.15;;;5.28;81.80
77450;BME280;66536;53.150;18.172;2023-05-07T05:08:47;102261.61;;;5.33;81.53
77450;BME280;66536;53.150;18.172;2023-05-07T05:11:13;102266.75;;;5.39;81.49
77450;BME280;66536;53.150;18.172;2023-05-07T05:13:39;102270.82;;;5.47;81.34
77450;BME280;66536;53.150;18.172;2023-05-07T05:16:11;102279.45;;;5.54;80.97
77450;BME280;66536;53.150;18.172;2023-05-07T05:18:38;102278.23;;;5.62;81.03
77450;BME280;66536;53.150;18.172;2023-05-07T05:21:04;102275.64;;;5.70;80.55
77450;BME280;66536;53.150;18.172;2023-05-07T05:23:32;102278.14;;;5.76;79.99
77450;BME280;66536;53.150;18.172;2023-05-07T05:25:58;102276.63;;;5.84;80.15
77450;BME280;66536;53.150;18.172;2023-05-07T05:28:25;102279.20;;;5.91;80.10
77450;BME280;66536;53.150;18.172;2023-05-07T05:30:51;102278.88;;;5.99;79.45
77450;BME280;66536;53.150;18.172;2023-05-07T05:33:18;102285.45;;;6.04;79.28
77450;BME280;66536;53.150;18.172;2023-05-07T05:35:44;102285.89;;;6.08;78.65
77450;BME280;66536;53.150;18.172;2023-05-07T05:38:11;102293.00;;;6.15;78.95
77450;BME280;66536;53.150;18.172;2023-05-07T05:40:39;102289.75;;;6.23;78.60
77450;BME280;66536;53.150;18.172;2023-05-07T05:43:05;102292.09;;;6.31;78.41
77450;BME280;66536;53.150;18.172;2023-05-07T05:45:33;102290.67;;;6.40;78.32
77450;BME280;66536;53.150;18.172;2023-05-07T05:47:59;102287.84;;;6.49;77.83
77450;BME280;66536;53.150;18.172;2023-05-07T05:50:25;102288.73;;;6.57;77.93
77450;BME280;66536;53.150;18.172;2023-05-07T05:52:51;102290.96;;;6.68;77.86
77450;BME280;66536;53.150;18.172;2023-05-07T05:55:19;102294.45;;;6.79;77.67
77450;BME280;66536;53.150;18.172;2023-05-07T05:57:46;102297.25;;;6.87;77.31
77450;BME280;66536;53.150;18.172;2023-05-07T06:00:12;102301.04;;;6.94;77.00
77450;BME280;66536;53.150;18.172;2023-05-07T06:02:45;102304.04;;;7.02;77.14
77450;BME280;66536;53.150;18.172;2023-05-07T06:05:13;102302.52;;;7.11;76.29
77450;BME280;66536;53.150;18.172;2023-05-07T06:07:40;102301.67;;;7.19;76.58
77450;BME280;66536;53.150;18.172;2023-05-07T06:10:06;102300.34;;;7.29;76.41
77450;BME280;66536;53.150;18.172;2023-05-07T06:12:33;102300.91;;;7.39;76.12
77450;BME280;66536;53.150;18.172;2023-05-07T06:14:59;102301.07;;;7.50;76.33
77450;BME280;66536;53.150;18.172;2023-05-07T06:17:25;102302.59;;;7.61;75.96
77450;BME280;66536;53.150;18.172;2023-05-07T06:19:52;102300.39;;;7.69;75.91
77450;BME280;66536;53.150;18.172;2023-05-07T06:22:18;102304.33;;;7.78;75.51
77450;BME280;66536;53.150;18.172;2023-05-07T06:24:45;102300.45;;;7.88;75.57
77450;BME280;66536;53.150;18.172;2023-05-07T06:27:12;102299.83;;;7.98;75.04
77450;BME280;66536;53.150;18.172;2023-05-07T06:29:39;102299.76;;;8.10;74.96
77450;BME280;66536;53.150;18.172;2023-05-07T06:32:13;102302.53;;;8.24;74.29
77450;BME280;66536;53.150;18.172;2023-05-07T06:34:40;102304.99;;;8.41;73.56
77450;BME280;66536;53.150;18.172;2023-05-07T06:37:07;102302.34;;;8.55;72.72
77450;BME280;66536;53.150;18.172;2023-05-07T06:39:46;102299.92;;;8.69;72.33
77450;BME280;66536;53.150;18.172;2023-05-07T06:42:12;102303.73;;;8.80;72.52
77450;BME280;66536;53.150;18.172;2023-05-07T06:44:40;102305.69;;;8.95;72.21
77450;BME280;66536;53.150;18.172;2023-05-07T06:47:10;102305.92;;;9.06;71.92
77450;BME280;66536;53.150;18.172;2023-05-07T06:49:38;102306.89;;;9.22;71.28
77450;BME280;66536;53.150;18.172;2023-05-07T06:52:04;102308.23;;;9.35;69.65
77450;BME280;66536;53.150;18.172;2023-05-07T06:54:31;102311.83;;;9.52;68.96
77450;BME280;66536;53.150;18.172;2023-05-07T06:56:57;102313.98;;;9.64;67.94
77450;BME280;66536;53.150;18.172;2023-05-07T06:59:25;102311.49;;;9.77;68.51
77450;BME280;66536;53.150;18.172;2023-05-07T07:01:52;102314.61;;;9.84;64.30
77450;BME280;66536;53.150;18.172;2023-05-07T07:04:18;102318.02;;;9.83;64.94
77450;BME280;66536;53.150;18.172;2023-05-07T07:06:48;102322.80;;;9.89;65.21
77450;BME280;66536;53.150;18.172;2023-05-07T07:09:14;102323.90;;;9.97;62.72
77450;BME280;66536;53.150;18.172;2023-05-07T07:11:41;102324.65;;;10.01;61.93
77450;BME280;66536;53.150;18.172;2023-05-07T07:14:07;102326.87;;;10.01;60.69
77450;BME280;66536;53.150;18.172;2023-05-07T07:16:36;102328.77;;;10.03;60.44
77450;BME280;66536;53.150;18.172;2023-05-07T07:19:02;102333.73;;;10.08;61.26
77450;BME280;66536;53.150;18.172;2023-05-07T07:21:28;102329.39;;;10.17;61.44
77450;BME280;66536;53.150;18.172;2023-05-07T07:23:55;102333.17;;;10.28;61.65
77450;BME280;66536;53.150;18.172;2023-05-07T07:26:21;102331.55;;;10.37;59.93
77450;BME280;66536;53.150;18.172;2023-05-07T07:28:47;102330.90;;;10.47;59.68
77450;BME280;66536;53.150;18.172;2023-05-07T07:31:16;102332.84;;;10.56;58.52
77450;BME280;66536;53.150;18.172;2023-05-07T07:33:42;102328.95;;;10.62;57.68
77450;BME280;66536;53.150;18.172;2023-05-07T07:36:08;102331.73;;;10.65;55.03
77450;BME280;66536;53.150;18.172;2023-05-07T07:38:34;102328.24;;;10.62;55.52
77450;BME280;66536;53.150;18.172;2023-05-07T07:41:01;102322.95;;;10.66;55.29
77450;BME280;66536;53.150;18.172;2023-05-07T07:43:28;102323.05;;;10.75;55.95
77450;BME280;66536;53.150;18.172;2023-05-07T07:45:54;102324.79;;;10.82;54.76
77450;BME280;66536;53.150;18.172;2023-05-07T07:48:20;102326.23;;;10.85;53.87
77450;BME280;66536;53.150;18.172;2023-05-07T07:50:49;102332.59;;;10.93;57.01
77450;BME280;66536;53.150;18.172;2023-05-07T07:53:18;102336.04;;;11.08;55.62
77450;BME280;66536;53.150;18.172;2023-05-07T07:55:44;102332.59;;;11.18;54.16
77450;BME280;66536;53.150;18.172;2023-05-07T07:58:12;102335.13;;;11.29;54.66
77450;BME280;66536;53.150;18.172;2023-05-07T08:00:38;102330.48;;;11.40;51.77
77450;BME280;66536;53.150;18.172;2023-05-07T08:03:04;102333.08;;;11.46;53.65
77450;BME280;66536;53.150;18.172;2023-05-07T08:05:34;102332.70;;;11.57;51.68
77450;BME280;66536;53.150;18.172;2023-05-07T08:08:00;102332.96;;;11.64;51.70
77450;BME280;66536;53.150;18.172;2023-05-07T08:10:29;102336.46;;;11.71;50.87
77450;BME280;66536;53.150;18.172;2023-05-07T08:13:01;102336.23;;;11.71;49.59
77450;BME280;66536;53.150;18.172;2023-05-07T08:15:31;102337.31;;;11.75;50.71
77450;BME280;66536;53.150;18.172;2023-05-07T08:17:58;102338.10;;;11.82;51.82
77450;BME280;66536;53.150;18.172;2023-05-07T08:20:26;102343.77;;;11.98;50.96
77450;BME280;66536;53.150;18.172;2023-05-07T08:22:52;102341.71;;;12.09;50.86
77450;BME280;66536;53.150;18.172;2023-05-07T08:25:18;102345.96;;;12.20;51.56
77450;BME280;66536;53.150;18.172;2023-05-07T08:27:44;102343.76;;;12.35;52.18
77450;BME280;66536;53.150;18.172;2023-05-07T08:30:11;102342.36;;;12.51;52.10
77450;BME280;66536;53.150;18.172;2023-05-07T08:32:37;102342.80;;;12.68;51.10
77450;BME280;66536;53.150;18.172;2023-05-07T08:35:04;102342.84;;;12.76;48.91
77450;BME280;66536;53.150;18.172;2023-05-07T08:37:30;102343.88;;;12.82;50.11
77450;BME280;66536;53.150;18.172;2023-05-07T08:39:56;102346.30;;;12.86;48.04
77450;BME280;66536;53.150;18.172;2023-05-07T08:42:24;102343.23;;;12.90;49.17
77450;BME280;66536;53.150;18.172;2023-05-07T08:44:51;102351.30;;;13.01;48.50
77450;BME280;66536;53.150;18.172;2023-05-07T08:47:22;102353.71;;;13.11;48.42
77450;BME280;66536;53.150;18.172;2023-05-07T08:49:53;102359.67;;;13.21;49.15
77450;BME280;66536;53.150;18.172;2023-05-07T08:52:19;102362.69;;;13.37;48.95
77450;BME280;66536;53.150;18.172;2023-05-07T08:54:46;102359.89;;;13.54;48.97
77450;BME280;66536;53.150;18.172;2023-05-07T08:57:33;102361.44;;;13.64;45.60
77450;BME280;66536;53.150;18.172;2023-05-07T09:00:00;102360.08;;;13.44;43.84
77450;BME280;66536;53.150;18.172;2023-05-07T09:02:26;102358.91;;;13.31;44.86
77450;BME280;66536;53.150;18.172;2023-05-07T09:04:53;102366.14;;;13.30;45.87
77450;BME280;66536;53.150;18.172;2023-05-07T09:07:20;102367.15;;;13.34;46.03
77450;BME280;66536;53.150;18.172;2023-05-07T09:09:47;102368.30;;;13.45;46.63
77450;BME280;66536;53.150;18.172;2023-05-07T09:12:13;102365.46;;;13.55;45.77
77450;BME280;66536;53.150;18.172;2023-05-07T09:14:40;102365.09;;;13.65;46.32
77450;BME280;66536;53.150;18.172;2023-05-07T09:17:06;102363.03;;;13.75;46.39
77450;BME280;66536;53.150;18.172;2023-05-07T09:19:33;102357.61;;;13.82;46.14
77450;BME280;66536;53.150;18.172;2023-05-07T09:22:02;102357.69;;;13.82;44.84
77450;BME280;66536;53.150;18.172;2023-05-07T09:24:32;102356.31;;;13.80;45.56
77450;BME280;66536;53.150;18.172;2023-05-07T09:27:02;102355.34;;;13.79;44.69
77450;BME280;66536;53.150;18.172;2023-05-07T09:29:29;102364.70;;;13.86;46.68
77450;BME280;66536;53.150;18.172;2023-05-07T09:31:57;102359.10;;;14.06;46.56
77450;BME280;66536;53.150;18.172;2023-05-07T09:34:23;102359.52;;;14.28;46.26
77450;BME280;66536;53.150;18.172;2023-05-07T09:36:49;102354.08;;;14.30;43.66
77450;BME280;66536;53.150;18.172;2023-05-07T09:39:16;102354.39;;;14.22;45.22
77450;BME280;66536;53.150;18.172;2023-05-07T09:41:46;102363.90;;;14.31;45.96
77450;BME280;66536;53.150;18.172;2023-05-07T09:44:19;102365.90;;;14.47;45.49
77450;BME280;66536;53.150;18.172;2023-05-07T09:46:53;102362.90;;;14.53;45.22
77450;BME280;66536;53.150;18.172;2023-05-07T09:49:23;102366.30;;;14.63;45.24
77450;BME280;66536;53.150;18.172;2023-05-07T09:51:57;102365.14;;;14.65;42.80
77450;BME280;66536;53.150;18.172;2023-05-07T09:54:26;102364.94;;;14.47;43.43
77450;BME280;66536;53.150;18.172;2023-05-07T09:56:55;102364.44;;;14.34;42.80
77450;BME280;66536;53.150;18.172;2023-05-07T09:59:25;102363.70;;;14.24;43.92
77450;BME280;66536;53.150;18.172;2023-05-07T10:01:57;102367.04;;;14.24;43.69
77450;BME280;66536;53.150;18.172;2023-05-07T10:04:25;102367.83;;;14.30;44.34
77450;BME280;66536;53.150;18.172;2023-05-07T10:06:54;102375.10;;;14.37;44.22
77450;BME280;66536;53.150;18.172;2023-05-07T10:09:21;102372.77;;;14.24;43.52
77450;BME280;66536;53.150;18.172;2023-05-07T10:11:49;102379.09;;;14.10;44.32
77450;BME280;66536;53.150;18.172;2023-05-07T10:14:16;102376.94;;;14.25;44.45
77450;BME280;66536;53.150;18.172;2023-05-07T10:16:44;102379.77;;;14.40;44.09
77450;BME280;66536;53.150;18.172;2023-05-07T10:19:14;102380.08;;;14.46;43.43
77450;BME280;66536;53.150;18.172;2023-05-07T10:21:48;102375.04;;;14.57;43.34
77450;BME280;66536;53.150;18.172;2023-05-07T10:24:25;102377.17;;;14.65;42.94
77450;BME280;66536;53.150;18.172;2023-05-07T10:26:53;102380.90;;;14.53;43.72
77450;BME280;66536;53.150;18.172;2023-05-07T10:29:39;102377.99;;;14.83;43.57
77450;BME280;66536;53.150;18.172;2023-05-07T10:32:37;102381.20;;;14.71;41.30
77450;BME280;66536;53.150;18.172;2023-05-07T10:35:14;102379.65;;;14.42;41.82
77450;BME280;66536;53.150;18.172;2023-05-07T10:37:42;102380.17;;;14.46;42.15
77450;BME280;66536;53.150;18.172;2023-05-07T10:40:10;102378.27;;;14.45;42.74
77450;BME280;66536;53.150;18.172;2023-05-07T10:42:37;102375.30;;;14.88;42.87
77450;BME280;66536;53.150;18.172;2023-05-07T10:45:15;102374.52;;;15.31;41.90
77450;BME280;66536;53.150;18.172;2023-05-07T10:50:31;102376.20;;;15.58;43.09
77450;BME280;66536;53.150;18.172;2023-05-07T10:53:19;102377.36;;;15.79;41.03
77450;BME280;66536;53.150;18.172;2023-05-07T10:56:23;102374.50;;;15.69;40.30
77450;BME280;66536;53.150;18.172;2023-05-07T11:01:57;102369.20;;;15.25;39.42
77450;BME280;66536;53.150;18.172;2023-05-07T11:04:32;102368.09;;;14.83;40.75
77450;BME280;66536;53.150;18.172;2023-05-07T11:07:23;102365.28;;;14.78;41.14
77450;BME280;66536;53.150;18.172;2023-05-07T11:09:57;102370.72;;;14.80;41.14
77450;BME280;66536;53.150;18.172;2023-05-07T11:12:52;102371.76;;;14.87;41.42
77450;BME280;66536;53.150;18.172;2023-05-07T11:15:40;102373.16;;;15.03;41.74
77450;BME280;66536;53.150;18.172;2023-05-07T11:18:17;102379.00;;;15.36;41.50
77450;BME280;66536;53.150;18.172;2023-05-07T11:20:50;102380.00;;;15.50;40.28
77450;BME280;66536;53.150;18.172;2023-05-07T11:23:56;102379.90;;;15.29;39.44
77450;BME280;66536;53.150;18.172;2023-05-07T11:26:30;102380.09;;;15.19;39.85
77450;BME280;66536;53.150;18.172;2023-05-07T11:28:58;102374.91;;;15.30;39.03
77450;BME280;66536;53.150;18.172;2023-05-07T11:31:27;102377.96;;;15.36;38.76
77450;BME280;66536;53.150;18.172;2023-05-07T11:33:55;102376.40;;;15.32;39.12
77450;BME280;66536;53.150;18.172;2023-05-07T11:36:23;102375.96;;;15.30;39.79
77450;BME280;66536;53.150;18.172;2023-05-07T11:38:51;102369.27;;;15.09;39.87
77450;BME280;66536;53.150;18.172;2023-05-07T11:41:17;102367.45;;;14.93;38.52
77450;BME280;66536;53.150;18.172;2023-05-07T11:43:57;102367.20;;;14.98;37.98
77450;BME280;66536;53.150;18.172;2023-05-07T11:46:23;102368.04;;;15.17;38.65
77450;BME280;66536;53.150;18.172;2023-05-07T11:48:53;102370.73;;;15.27;37.66
77450;BME280;66536;53.150;18.172;2023-05-07T11:51:21;102372.89;;;15.23;37.37
77450;BME280;66536;53.150;18.172;2023-05-07T11:53:48;102373.02;;;15.26;38.32
77450;BME280;66536;53.150;18.172;2023-05-07T11:56:17;102375.80;;;15.50;38.62
77450;BME280;66536;53.150;18.172;2023-05-07T11:58:45;102376.08;;;15.79;38.44
77450;BME280;66536;53.150;18.172;2023-05-07T12:01:19;102380.39;;;15.97;37.36
77450;BME280;66536;53.150;18.172;2023-05-07T12:03:45;102376.75;;;16.09;37.25
77450;BME280;66536;53.150;18.172;2023-05-07T12:06:14;102378.76;;;16.13;36.55
77450;BME280;66536;53.150;18.172;2023-05-07T12:08:41;102375.10;;;16.00;36.58
77450;BME280;66536;53.150;18.172;2023-05-07T12:11:11;102379.52;;;16.01;37.10
77450;BME280;66536;53.150;18.172;2023-05-07T12:13:38;102378.67;;;16.26;37.98
77450;BME280;66536;53.150;18.172;2023-05-07T12:16:06;102377.27;;;16.70;37.65
77450;BME280;66536;53.150;18.172;2023-05-07T12:18:35;102381.39;;;17.18;36.75
77450;BME280;66536;53.150;18.172;2023-05-07T12:21:03;102380.29;;;17.38;36.28
77450;BME280;66536;53.150;18.172;2023-05-07T12:23:30;102380.68;;;17.32;35.66
77450;BME280;66536;53.150;18.172;2023-05-07T12:25:57;102383.45;;;17.13;36.03
77450;BME280;66536;53.150;18.172;2023-05-07T12:28:24;102380.14;;;16.86;36.36
77450;BME280;66536;53.150;18.172;2023-05-07T12:30:51;102380.39;;;16.62;36.42
77450;BME280;66536;53.150;18.172;2023-05-07T12:33:24;102381.64;;;16.39;36.66
77450;BME280;66536;53.150;18.172;2023-05-07T12:35:50;102379.08;;;16.12;37.18
77450;BME280;66536;53.150;18.172;2023-05-07T12:38:17;102381.60;;;15.98;36.49
77450;BME280;66536;53.150;18.172;2023-05-07T12:40:49;102381.52;;;15.89;36.38
77450;BME280;66536;53.150;18.172;2023-05-07T12:43:21;102376.98;;;16.02;36.30
77450;BME280;66536;53.150;18.172;2023-05-07T12:45:50;102376.95;;;16.14;36.59
77450;BME280;66536;53.150;18.172;2023-05-07T12:48:17;102374.53;;;16.33;36.94
77450;BME280;66536;53.150;18.172;2023-05-07T12:50:44;102376.28;;;16.66;35.75
77450;BME280;66536;53.150;18.172;2023-05-07T12:53:12;102372.50;;;16.79;34.82
77450;BME280;66536;53.150;18.172;2023-05-07T12:55:44;102379.13;;;16.99;35.12
77450;BME280;66536;53.150;18.172;2023-05-07T12:58:29;102380.27;;;17.17;34.68